sensor_id;sensor_type;location;lat;lon;timestamp;P1;durP1;ratioP1;P2;durP2;ratioP2
27925;SDS011;15267;47.838;12.128;2023-04-25T00:00:21;2.85;;;1.55;;
27925;SDS011;15267;47.838;12.128;2023-04-25T00:02:46;3.55;;;1.80;;
27925;SDS011;15267;47.838;12.128;2023-04-25T00:05:13;4.40;;;2.00;;
27925;SDS011;15267;47.838;12.128;2023-04-25T00:07:42;2.15;;;1.90;;
27925;SDS011;15267;47.838;12.128;2023-04-25T00:10:08;2.28;;;1.80;;
27925;SDS011;15267;47.838;12.128;2023-04-25T00:12:35;4.95;;;2.33;;
27925;SDS011;15267;47.838;12.128;2023-04-25T00:15:02;2.42;;;1.92;;
27925;SDS011;15267;47.838;12.128;2023-04-25T00:17:28;2.58;;;1.92;;
27925;SDS011;15267;47.838;12.128;2023-04-25T00:19:54;4.40;;;2.25;;
27925;SDS011;15267;47.838;12.128;2023-04-25T00:22:21;4.22;;;2.28;;
27925;SDS011;15267;47.838;12.128;2023-04-25T00:24:47;2.42;;;2.17;;
27925;SDS011;15267;47.838;12.128;2023-04-25T00:27:13;4.82;;;2.20;;
27925;SDS011;15267;47.838;12.128;2023-04-25T00:29:39;6.45;;;2.10;;
27925;SDS011;15267;47.838;12.128;2023-04-25T00:32:05;3.05;;;2.15;;
27925;SDS011;15267;47.838;12.128;2023-04-25T00:34:31;3.38;;;2.38;;
27925;SDS011;15267;47.838;12.128;2023-04-25T00:36:56;4.00;;;2.10;;
27925;SDS011;15267;47.838;12.128;2023-04-25T00:39:22;3.58;;;1.90;;
27925;SDS011;15267;47.838;12.128;2023-04-25T00:41:48;2.58;;;2.00;;
27925;SDS011;15267;47.838;12.128;2023-04-25T00:44:18;4.30;;;1.95;;
27925;SDS011;15267;47.838;12.128;2023-04-25T00:46:44;2.58;;;2.00;;
27925;SDS011;15267;47.838;12.128;2023-04-25T00:49:11;3.55;;;2.17;;
27925;SDS011;15267;47.838;12.128;2023-04-25T00:51:40;3.50;;;1.92;;
27925;SDS011;15267;47.838;12.128;2023-04-25T00:54:06;4.47;;;2.03;;
27925;SDS011;15267;47.838;12.128;2023-04-25T00:56:32;4.07;;;1.83;;
27925;SDS011;15267;47.838;12.128;2023-04-25T00:58:58;2.70;;;1.80;;
27925;SDS011;15267;47.838;12.128;2023-04-25T01:01:24;1.80;;;1.63;;
27925;SDS011;15267;47.838;12.128;2023-04-25T01:03:50;2.17;;;1.90;;
27925;SDS011;15267;47.838;12.128;2023-04-25T01:06:17;2.78;;;1.92;;
27925;SDS011;15267;47.838;12.128;2023-04-25T01:08:43;3.10;;;1.83;;
27925;SDS011;15267;47.838;12.128;2023-04-25T01:11:09;3.22;;;2.00;;
27925;SDS011;15267;47.838;12.128;2023-04-25T01:13:35;3.45;;;2.10;;
27925;SDS011;15267;47.838;12.128;2023-04-25T01:16:01;2.60;;;1.80;;
27925;SDS011;15267;47.838;12.128;2023-04-25T01:18:28;4.22;;;1.95;;
27925;SDS011;15267;47.838;12.128;2023-04-25T01:20:54;3.30;;;1.80;;
27925;SDS011;15267;47.838;12.128;2023-04-25T01:23:21;3.17;;;1.90;;
27925;SDS011;15267;47.838;12.128;2023-04-25T01:25:47;4.13;;;2.03;;
27925;SDS011;15267;47.838;12.128;2023-04-25T01:28:13;2.00;;;1.80;;
27925;SDS011;15267;47.838;12.128;2023-04-25T01:30:40;2.88;;;2.00;;
27925;SDS011;15267;47.838;12.128;2023-04-25T01:33:06;3.58;;;1.98;;
27925;SDS011;15267;47.838;12.128;2023-04-25T01:35:33;4.30;;;2.20;;
27925;SDS011;15267;47.838;12.128;2023-04-25T01:37:59;1.95;;;1.80;;
27925;SDS011;15267;47.838;12.128;2023-04-25T01:40:25;3.28;;;1.70;;
27925;SDS011;15267;47.838;12.128;2023-04-25T01:42:53;3.13;;;1.80;;
27925;SDS011;15267;47.838;12.128;2023-04-25T01:45:19;2.65;;;1.60;;
27925;SDS011;15267;47.838;12.128;2023-04-25T01:47:45;2.45;;;1.70;;
27925;SDS011;15267;47.838;12.128;2023-04-25T01:50:14;2.20;;;2.00;;
27925;SDS011;15267;47.838;12.128;2023-04-25T01:52:41;3.58;;;2.08;;
27925;SDS011;15267;47.838;12.128;2023-04-25T01:55:07;2.97;;;1.70;;
27925;SDS011;15267;47.838;12.128;2023-04-25T01:57:33;3.22;;;1.80;;
27925;SDS011;15267;47.838;12.128;2023-04-25T02:00:00;2.58;;;2.00;;
27925;SDS011;15267;47.838;12.128;2023-04-25T02:02:26;2.28;;;1.80;;
27925;SDS011;15267;47.838;12.128;2023-04-25T02:04:52;4.50;;;2.10;;
27925;SDS011;15267;47.838;12.128;2023-04-25T02:07:19;4.60;;;2.28;;
27925;SDS011;15267;47.838;12.128;2023-04-25T02:09:45;3.63;;;2.10;;
27925;SDS011;15267;47.838;12.128;2023-04-25T02:12:11;2.10;;;1.80;;
27925;SDS011;15267;47.838;12.128;2023-04-25T02:14:37;4.03;;;2.03;;
27925;SDS011;15267;47.838;12.128;2023-04-25T02:17:03;3.58;;;2.00;;
27925;SDS011;15267;47.838;12.128;2023-04-25T02:19:30;2.60;;;1.77;;
27925;SDS011;15267;47.838;12.128;2023-04-25T02:21:56;2.55;;;1.90;;
27925;SDS011;15267;47.838;12.128;2023-04-25T02:24:23;2.88;;;2.20;;
27925;SDS011;15267;47.838;12.128;2023-04-25T02:26:49;2.88;;;2.10;;
27925;SDS011;15267;47.838;12.128;2023-04-25T02:29:15;2.70;;;2.05;;
27925;SDS011;15267;47.838;12.128;2023-04-25T02:31:41;3.17;;;2.30;;
27925;SDS011;15267;47.838;12.128;2023-04-25T02:34:07;2.35;;;2.10;;
27925;SDS011;15267;47.838;12.128;2023-04-25T02:36:33;3.88;;;1.90;;
27925;SDS011;15267;47.838;12.128;2023-04-25T02:39:00;3.70;;;2.00;;
27925;SDS011;15267;47.838;12.128;2023-04-25T02:41:27;6.70;;;2.20;;
27925;SDS011;15267;47.838;12.128;2023-04-25T02:43:53;4.43;;;1.98;;
27925;SDS011;15267;47.838;12.128;2023-04-25T02:46:19;2.95;;;1.90;;
27925;SDS011;15267;47.838;12.128;2023-04-25T02:48:45;3.17;;;2.00;;
27925;SDS011;15267;47.838;12.128;2023-04-25T02:51:11;3.80;;;1.70;;
27925;SDS011;15267;47.838;12.128;2023-04-25T02:53:37;3.40;;;2.00;;
27925;SDS011;15267;47.838;12.128;2023-04-25T02:56:03;2.03;;;1.70;;
27925;SDS011;15267;47.838;12.128;2023-04-25T02:58:30;7.38;;;1.90;;
27925;SDS011;15267;47.838;12.128;2023-04-25T03:00:56;3.22;;;2.00;;
27925;SDS011;15267;47.838;12.128;2023-04-25T03:03:22;2.55;;;1.77;;
27925;SDS011;15267;47.838;12.128;2023-04-25T03:05:51;2.58;;;2.00;;
27925;SDS011;15267;47.838;12.128;2023-04-25T03:08:17;2.47;;;1.80;;
27925;SDS011;15267;47.838;12.128;2023-04-25T03:10:44;4.72;;;1.88;;
27925;SDS011;15267;47.838;12.128;2023-04-25T03:13:10;2.97;;;2.10;;
27925;SDS011;15267;47.838;12.128;2023-04-25T03:15:36;2.60;;;2.10;;
27925;SDS011;15267;47.838;12.128;2023-04-25T03:18:02;4.07;;;2.30;;
27925;SDS011;15267;47.838;12.128;2023-04-25T03:20:28;4.15;;;2.30;;
27925;SDS011;15267;47.838;12.128;2023-04-25T03:22:55;3.17;;;2.08;;
27925;SDS011;15267;47.838;12.128;2023-04-25T03:25:21;4.40;;;2.22;;
27925;SDS011;15267;47.838;12.128;2023-04-25T03:27:47;3.95;;;2.10;;
27925;SDS011;15267;47.838;12.128;2023-04-25T03:30:13;3.95;;;2.00;;
27925;SDS011;15267;47.838;12.128;2023-04-25T03:32:39;5.50;;;2.00;;
27925;SDS011;15267;47.838;12.128;2023-04-25T03:35:05;3.05;;;1.83;;
27925;SDS011;15267;47.838;12.128;2023-04-25T03:37:31;3.15;;;1.75;;
27925;SDS011;15267;47.838;12.128;2023-04-25T03:39:57;4.07;;;2.15;;
27925;SDS011;15267;47.838;12.128;2023-04-25T03:42:23;3.67;;;1.90;;
27925;SDS011;15267;47.838;12.128;2023-04-25T03:44:49;2.85;;;1.90;;
27925;SDS011;15267;47.838;12.128;2023-04-25T03:47:15;3.25;;;1.80;;
27925;SDS011;15267;47.838;12.128;2023-04-25T03:49:41;3.38;;;2.00;;
27925;SDS011;15267;47.838;12.128;2023-04-25T03:52:07;3.42;;;2.00;;
27925;SDS011;15267;47.838;12.128;2023-04-25T03:54:33;4.20;;;2.22;;
27925;SDS011;15267;47.838;12.128;2023-04-25T03:56:59;4.35;;;1.90;;
27925;SDS011;15267;47.838;12.128;2023-04-25T03:59:25;3.55;;;2.00;;
27925;SDS011;15267;47.838;12.128;2023-04-25T04:01:51;3.05;;;2.08;;
27925;SDS011;15267;47.838;12.128;2023-04-25T04:04:18;6.10;;;2.10;;
27925;SDS011;15267;47.838;12.128;2023-04-25T04:06:44;3.47;;;1.92;;
27925;SDS011;15267;47.838;12.128;2023-04-25T04:09:10;2.63;;;1.85;;
27925;SDS011;15267;47.838;12.128;2023-04-25T04:11:37;3.38;;;2.30;;
27925;SDS011;15267;47.838;12.128;2023-04-25T04:14:07;3.65;;;2.30;;
27925;SDS011;15267;47.838;12.128;2023-04-25T04:16:34;3.00;;;2.00;;
27925;SDS011;15267;47.838;12.128;2023-04-25T04:19:00;4.68;;;2.10;;
27925;SDS011;15267;47.838;12.128;2023-04-25T04:21:26;5.05;;;2.30;;
27925;SDS011;15267;47.838;12.128;2023-04-25T04:23:52;6.18;;;2.30;;
27925;SDS011;15267;47.838;12.128;2023-04-25T04:26:19;6.20;;;2.60;;
27925;SDS011;15267;47.838;12.128;2023-04-25T04:28:48;6.97;;;3.20;;
27925;SDS011;15267;47.838;12.128;2023-04-25T04:31:15;4.55;;;2.65;;
27925;SDS011;15267;47.838;12.128;2023-04-25T04:33:43;3.70;;;2.22;;
27925;SDS011;15267;47.838;12.128;2023-04-25T04:36:09;4.85;;;2.33;;
27925;SDS011;15267;47.838;12.128;2023-04-25T04:38:35;2.83;;;2.17;;
27925;SDS011;15267;47.838;12.128;2023-04-25T04:41:01;4.28;;;2.00;;
27925;SDS011;15267;47.838;12.128;2023-04-25T04:43:28;4.53;;;2.60;;
27925;SDS011;15267;47.838;12.128;2023-04-25T04:45:54;3.88;;;2.50;;
27925;SDS011;15267;47.838;12.128;2023-04-25T04:48:23;4.55;;;2.75;;
27925;SDS011;15267;47.838;12.128;2023-04-25T04:50:49;4.40;;;2.67;;
27925;SDS011;15267;47.838;12.128;2023-04-25T04:53:15;6.57;;;2.60;;
27925;SDS011;15267;47.838;12.128;2023-04-25T04:55:41;4.82;;;2.75;;
27925;SDS011;15267;47.838;12.128;2023-04-25T04:58:07;4.15;;;3.00;;
27925;SDS011;15267;47.838;12.128;2023-04-25T05:00:33;4.90;;;2.80;;
27925;SDS011;15267;47.838;12.128;2023-04-25T05:02:59;4.85;;;3.60;;
27925;SDS011;15267;47.838;12.128;2023-04-25T05:05:25;7.63;;;3.90;;
27925;SDS011;15267;47.838;12.128;2023-04-25T05:07:51;5.68;;;3.15;;
27925;SDS011;15267;47.838;12.128;2023-04-25T05:10:18;12.35;;;3.10;;
27925;SDS011;15267;47.838;12.128;2023-04-25T05:12:45;4.05;;;2.80;;
27925;SDS011;15267;47.838;12.128;2023-04-25T05:15:11;7.97;;;3.63;;
27925;SDS011;15267;47.838;12.128;2023-04-25T05:17:37;5.28;;;3.22;;
27925;SDS011;15267;47.838;12.128;2023-04-25T05:20:04;4.38;;;3.35;;
27925;SDS011;15267;47.838;12.128;2023-04-25T05:22:30;6.00;;;2.92;;
27925;SDS011;15267;47.838;12.128;2023-04-25T05:24:56;3.60;;;2.42;;
27925;SDS011;15267;47.838;12.128;2023-04-25T05:27:22;4.20;;;2.05;;
27925;SDS011;15267;47.838;12.128;2023-04-25T05:29:48;4.55;;;2.42;;
27925;SDS011;15267;47.838;12.128;2023-04-25T05:32:14;2.83;;;1.75;;
27925;SDS011;15267;47.838;12.128;2023-04-25T05:34:40;3.63;;;2.00;;
27925;SDS011;15267;47.838;12.128;2023-04-25T05:37:06;3.72;;;2.10;;
27925;SDS011;15267;47.838;12.128;2023-04-25T05:39:32;6.15;;;1.90;;
27925;SDS011;15267;47.838;12.128;2023-04-25T05:41:58;5.90;;;1.77;;
27925;SDS011;15267;47.838;12.128;2023-04-25T05:44:24;2.75;;;1.92;;
27925;SDS011;15267;47.838;12.128;2023-04-25T05:46:51;3.67;;;2.00;;
27925;SDS011;15267;47.838;12.128;2023-04-25T05:49:17;3.15;;;2.00;;
27925;SDS011;15267;47.838;12.128;2023-04-25T05:51:43;4.45;;;2.15;;
27925;SDS011;15267;47.838;12.128;2023-04-25T05:54:10;4.22;;;1.90;;
27925;SDS011;15267;47.838;12.128;2023-04-25T05:56:36;2.97;;;1.80;;
27925;SDS011;15267;47.838;12.128;2023-04-25T05:59:02;3.08;;;1.90;;
27925;SDS011;15267;47.838;12.128;2023-04-25T06:01:28;4.00;;;2.03;;
27925;SDS011;15267;47.838;12.128;2023-04-25T06:03:54;2.78;;;2.20;;
27925;SDS011;15267;47.838;12.128;2023-04-25T06:06:20;3.25;;;1.95;;
27925;SDS011;15267;47.838;12.128;2023-04-25T06:08:46;2.75;;;1.63;;
27925;SDS011;15267;47.838;12.128;2023-04-25T06:11:12;2.83;;;1.80;;
27925;SDS011;15267;47.838;12.128;2023-04-25T06:13:38;4.28;;;2.47;;
27925;SDS011;15267;47.838;12.128;2023-04-25T06:16:04;3.53;;;1.80;;
27925;SDS011;15267;47.838;12.128;2023-04-25T06:18:30;2.95;;;2.00;;
27925;SDS011;15267;47.838;12.128;2023-04-25T06:20:56;5.63;;;2.45;;
27925;SDS011;15267;47.838;12.128;2023-04-25T06:23:22;4.88;;;2.10;;
27925;SDS011;15267;47.838;12.128;2023-04-25T06:25:48;4.60;;;2.30;;
27925;SDS011;15267;47.838;12.128;2023-04-25T06:28:14;5.55;;;2.10;;
27925;SDS011;15267;47.838;12.128;2023-04-25T06:30:40;5.07;;;2.10;;
27925;SDS011;15267;47.838;12.128;2023-04-25T06:33:06;4.05;;;2.05;;
27925;SDS011;15267;47.838;12.128;2023-04-25T06:35:33;3.30;;;2.22;;
27925;SDS011;15267;47.838;12.128;2023-04-25T06:37:59;3.88;;;2.10;;
27925;SDS011;15267;47.838;12.128;2023-04-25T06:40:25;3.00;;;1.95;;
27925;SDS011;15267;47.838;12.128;2023-04-25T06:42:51;6.10;;;2.35;;
27925;SDS011;15267;47.838;12.128;2023-04-25T06:45:17;6.55;;;3.47;;
27925;SDS011;15267;47.838;12.128;2023-04-25T06:47:43;4.72;;;2.58;;
27925;SDS011;15267;47.838;12.128;2023-04-25T06:50:09;4.28;;;2.40;;
27925;SDS011;15267;47.838;12.128;2023-04-25T06:52:35;3.13;;;1.80;;
27925;SDS011;15267;47.838;12.128;2023-04-25T06:55:01;5.28;;;2.28;;
27925;SDS011;15267;47.838;12.128;2023-04-25T06:57:27;5.95;;;2.70;;
27925;SDS011;15267;47.838;12.128;2023-04-25T06:59:53;3.83;;;2.58;;
27925;SDS011;15267;47.838;12.128;2023-04-25T07:02:19;4.30;;;2.60;;
27925;SDS011;15267;47.838;12.128;2023-04-25T07:04:46;5.10;;;2.33;;
27925;SDS011;15267;47.838;12.128;2023-04-25T07:07:12;3.90;;;2.00;;
27925;SDS011;15267;47.838;12.128;2023-04-25T07:09:38;3.95;;;2.10;;
27925;SDS011;15267;47.838;12.128;2023-04-25T07:12:04;3.58;;;2.38;;
27925;SDS011;15267;47.838;12.128;2023-04-25T07:14:30;2.80;;;2.10;;
27925;SDS011;15267;47.838;12.128;2023-04-25T07:16:56;7.07;;;2.40;;
27925;SDS011;15267;47.838;12.128;2023-04-25T07:19:22;4.63;;;2.20;;
27925;SDS011;15267;47.838;12.128;2023-04-25T07:21:51;3.15;;;2.00;;
27925;SDS011;15267;47.838;12.128;2023-04-25T07:24:17;3.70;;;2.05;;
27925;SDS011;15267;47.838;12.128;2023-04-25T07:26:43;4.63;;;2.33;;
27925;SDS011;15267;47.838;12.128;2023-04-25T07:29:09;6.68;;;2.65;;
27925;SDS011;15267;47.838;12.128;2023-04-25T07:31:35;4.35;;;2.20;;
27925;SDS011;15267;47.838;12.128;2023-04-25T07:34:01;5.78;;;2.35;;
27925;SDS011;15267;47.838;12.128;2023-04-25T07:36:27;3.97;;;2.20;;
27925;SDS011;15267;47.838;12.128;2023-04-25T07:38:53;3.97;;;1.80;;
27925;SDS011;15267;47.838;12.128;2023-04-25T07:41:19;3.40;;;2.30;;
27925;SDS011;15267;47.838;12.128;2023-04-25T07:43:45;3.92;;;2.33;;
27925;SDS011;15267;47.838;12.128;2023-04-25T07:46:11;3.15;;;2.20;;
27925;SDS011;15267;47.838;12.128;2023-04-25T07:48:37;4.97;;;2.33;;
27925;SDS011;15267;47.838;12.128;2023-04-25T07:51:03;8.27;;;2.35;;
27925;SDS011;15267;47.838;12.128;2023-04-25T07:53:30;3.53;;;1.90;;
27925;SDS011;15267;47.838;12.128;2023-04-25T07:55:57;6.00;;;2.22;;
27925;SDS011;15267;47.838;12.128;2023-04-25T07:58:23;5.15;;;2.45;;
27925;SDS011;15267;47.838;12.128;2023-04-25T08:00:49;4.03;;;2.20;;
27925;SDS011;15267;47.838;12.128;2023-04-25T08:03:15;7.10;;;2.20;;
27925;SDS011;15267;47.838;12.128;2023-04-25T08:05:41;6.43;;;2.10;;
27925;SDS011;15267;47.838;12.128;2023-04-25T08:08:07;3.65;;;2.20;;
27925;SDS011;15267;47.838;12.128;2023-04-25T08:10:33;5.57;;;2.58;;
27925;SDS011;15267;47.838;12.128;2023-04-25T08:12:59;3.70;;;2.08;;
27925;SDS011;15267;47.838;12.128;2023-04-25T08:15:25;3.13;;;2.08;;
27925;SDS011;15267;47.838;12.128;2023-04-25T08:17:51;3.50;;;1.92;;
27925;SDS011;15267;47.838;12.128;2023-04-25T08:20:17;8.57;;;2.20;;
27925;SDS011;15267;47.838;12.128;2023-04-25T08:22:43;5.18;;;1.92;;
27925;SDS011;15267;47.838;12.128;2023-04-25T08:25:09;3.85;;;2.10;;
27925;SDS011;15267;47.838;12.128;2023-04-25T08:27:35;4.07;;;2.00;;
27925;SDS011;15267;47.838;12.128;2023-04-25T08:30:02;3.63;;;1.80;;
27925;SDS011;15267;47.838;12.128;2023-04-25T08:32:28;5.82;;;2.00;;
27925;SDS011;15267;47.838;12.128;2023-04-25T08:34:54;5.97;;;2.22;;
27925;SDS011;15267;47.838;12.128;2023-04-25T08:37:20;6.60;;;2.60;;
27925;SDS011;15267;47.838;12.128;2023-04-25T08:39:46;4.40;;;2.13;;
27925;SDS011;15267;47.838;12.128;2023-04-25T08:42:17;5.38;;;2.03;;
27925;SDS011;15267;47.838;12.128;2023-04-25T08:44:44;3.97;;;2.33;;
27925;SDS011;15267;47.838;12.128;2023-04-25T08:47:11;2.85;;;1.80;;
27925;SDS011;15267;47.838;12.128;2023-04-25T08:49:37;5.47;;;2.28;;
27925;SDS011;15267;47.838;12.128;2023-04-25T08:52:04;4.10;;;2.00;;
27925;SDS011;15267;47.838;12.128;2023-04-25T08:54:31;4.22;;;1.88;;
27925;SDS011;15267;47.838;12.128;2023-04-25T08:57:00;5.22;;;2.08;;
27925;SDS011;15267;47.838;12.128;2023-04-25T08:59:29;5.63;;;2.10;;
27925;SDS011;15267;47.838;12.128;2023-04-25T09:01:56;5.07;;;1.88;;
27925;SDS011;15267;47.838;12.128;2023-04-25T09:04:22;8.27;;;2.10;;
27925;SDS011;15267;47.838;12.128;2023-04-25T09:06:48;5.60;;;2.10;;
27925;SDS011;15267;47.838;12.128;2023-04-25T09:09:14;5.45;;;1.80;;
27925;SDS011;15267;47.838;12.128;2023-04-25T09:11:40;4.35;;;1.60;;
27925;SDS011;15267;47.838;12.128;2023-04-25T09:14:13;3.83;;;1.65;;
27925;SDS011;15267;47.838;12.128;2023-04-25T09:19:24;5.60;;;1.95;;
27925;SDS011;15267;47.838;12.128;2023-04-25T09:21:50;3.70;;;1.42;;
27925;SDS011;15267;47.838;12.128;2023-04-25T09:24:20;4.50;;;2.00;;
27925;SDS011;15267;47.838;12.128;2023-04-25T09:26:55;4.18;;;1.80;;
27925;SDS011;15267;47.838;12.128;2023-04-25T09:29:27;5.15;;;1.92;;
27925;SDS011;15267;47.838;12.128;2023-04-25T09:32:03;3.42;;;1.95;;
27925;SDS011;15267;47.838;12.128;2023-04-25T09:34:40;3.45;;;1.85;;
27925;SDS011;15267;47.838;12.128;2023-04-25T09:37:07;3.22;;;2.03;;
27925;SDS011;15267;47.838;12.128;2023-04-25T09:39:33;3.90;;;2.00;;
27925;SDS011;15267;47.838;12.128;2023-04-25T09:41:59;5.60;;;2.10;;
27925;SDS011;15267;47.838;12.128;2023-04-25T09:44:25;6.55;;;2.35;;
27925;SDS011;15267;47.838;12.128;2023-04-25T09:46:52;3.97;;;2.33;;
27925;SDS011;15267;47.838;12.128;2023-04-25T09:49:19;5.45;;;1.80;;
27925;SDS011;15267;47.838;12.128;2023-04-25T09:51:58;4.28;;;1.85;;
27925;SDS011;15267;47.838;12.128;2023-04-25T09:54:25;5.47;;;1.90;;
27925;SDS011;15267;47.838;12.128;2023-04-25T09:56:52;3.85;;;1.80;;
27925;SDS011;15267;47.838;12.128;2023-04-25T09:59:21;2.75;;;1.58;;
27925;SDS011;15267;47.838;12.128;2023-04-25T10:01:48;2.67;;;1.40;;
27925;SDS011;15267;47.838;12.128;2023-04-25T10:04:22;2.78;;;1.00;;
27925;SDS011;15267;47.838;12.128;2023-04-25T10:06:51;3.63;;;1.38;;
27925;SDS011;15267;47.838;12.128;2023-04-25T10:09:19;2.75;;;1.10;;
27925;SDS011;15267;47.838;12.128;2023-04-25T10:11:46;1.70;;;1.20;;
27925;SDS011;15267;47.838;12.128;2023-04-25T10:14:15;3.38;;;1.23;;
27925;SDS011;15267;47.838;12.128;2023-04-25T10:16:41;1.50;;;1.00;;
27925;SDS011;15267;47.838;12.128;2023-04-25T10:19:09;2.45;;;1.00;;
27925;SDS011;15267;47.838;12.128;2023-04-25T10:21:35;2.67;;;1.15;;
27925;SDS011;15267;47.838;12.128;2023-04-25T10:24:02;3.00;;;1.35;;
27925;SDS011;15267;47.838;12.128;2023-04-25T10:26:28;2.22;;;1.30;;
27925;SDS011;15267;47.838;12.128;2023-04-25T10:28:59;2.53;;;1.40;;
27925;SDS011;15267;47.838;12.128;2023-04-25T10:31:25;2.80;;;1.48;;
27925;SDS011;15267;47.838;12.128;2023-04-25T10:33:52;3.17;;;1.40;;
27925;SDS011;15267;47.838;12.128;2023-04-25T10:36:20;3.47;;;1.60;;
27925;SDS011;15267;47.838;12.128;2023-04-25T10:38:46;3.47;;;1.30;;
27925;SDS011;15267;47.838;12.128;2023-04-25T10:41:13;3.80;;;1.70;;
27925;SDS011;15267;47.838;12.128;2023-04-25T10:43:40;2.05;;;1.50;;
27925;SDS011;15267;47.838;12.128;2023-04-25T10:46:16;2.75;;;1.52;;
27925;SDS011;15267;47.838;12.128;2023-04-25T10:48:45;4.95;;;1.75;;
27925;SDS011;15267;47.838;12.128;2023-04-25T10:51:15;4.82;;;2.20;;
27925;SDS011;15267;47.838;12.128;2023-04-25T10:53:43;7.07;;;1.67;;
27925;SDS011;15267;47.838;12.128;2023-04-25T10:56:10;2.60;;;1.80;;
27925;SDS011;15267;47.838;12.128;2023-04-25T10:58:41;4.65;;;2.00;;
27925;SDS011;15267;47.838;12.128;2023-04-25T11:01:07;5.32;;;1.90;;
27925;SDS011;15267;47.838;12.128;2023-04-25T11:03:37;4.03;;;1.70;;
27925;SDS011;15267;47.838;12.128;2023-04-25T11:06:03;5.22;;;2.05;;
27925;SDS011;15267;47.838;12.128;2023-04-25T11:08:35;4.10;;;1.73;;
27925;SDS011;15267;47.838;12.128;2023-04-25T11:11:03;3.58;;;1.80;;
27925;SDS011;15267;47.838;12.128;2023-04-25T11:13:29;5.45;;;1.90;;
27925;SDS011;15267;47.838;12.128;2023-04-25T11:15:55;5.30;;;2.10;;
27925;SDS011;15267;47.838;12.128;2023-04-25T11:18:21;5.28;;;2.15;;
27925;SDS011;15267;47.838;12.128;2023-04-25T11:20:47;2.35;;;2.00;;
27925;SDS011;15267;47.838;12.128;2023-04-25T11:23:13;2.65;;;1.77;;
27925;SDS011;15267;47.838;12.128;2023-04-25T11:25:41;3.72;;;2.00;;
27925;SDS011;15267;47.838;12.128;2023-04-25T11:28:07;3.80;;;2.00;;
27925;SDS011;15267;47.838;12.128;2023-04-25T11:30:33;2.33;;;1.40;;
27925;SDS011;15267;47.838;12.128;2023-04-25T11:32:59;1.88;;;1.42;;
27925;SDS011;15267;47.838;12.128;2023-04-25T11:35:27;3.03;;;1.50;;
27925;SDS011;15267;47.838;12.128;2023-04-25T11:37:53;3.72;;;1.65;;
27925;SDS011;15267;47.838;12.128;2023-04-25T11:40:19;3.05;;;1.52;;
27925;SDS011;15267;47.838;12.128;2023-04-25T11:42:46;2.85;;;1.50;;
27925;SDS011;15267;47.838;12.128;2023-04-25T11:45:12;5.00;;;1.70;;
27925;SDS011;15267;47.838;12.128;2023-04-25T11:47:38;7.53;;;1.60;;
27925;SDS011;15267;47.838;12.128;2023-04-25T11:50:05;3.25;;;1.67;;
27925;SDS011;15267;47.838;12.128;2023-04-25T11:52:36;2.63;;;1.50;;
27925;SDS011;15267;47.838;12.128;2023-04-25T11:55:04;2.75;;;1.70;;
27925;SDS011;15267;47.838;12.128;2023-04-25T11:57:31;4.10;;;1.48;;
27925;SDS011;15267;47.838;12.128;2023-04-25T12:00:04;4.38;;;1.60;;
27925;SDS011;15267;47.838;12.128;2023-04-25T12:02:31;5.30;;;2.05;;
27925;SDS011;15267;47.838;12.128;2023-04-25T12:04:59;8.90;;;2.20;;
27925;SDS011;15267;47.838;12.128;2023-04-25T12:07:31;3.58;;;2.10;;
27925;SDS011;15267;47.838;12.128;2023-04-25T12:09:57;4.68;;;1.95;;
27925;SDS011;15267;47.838;12.128;2023-04-25T12:12:27;2.92;;;1.70;;
27925;SDS011;15267;47.838;12.128;2023-04-25T12:14:53;4.63;;;1.92;;
27925;SDS011;15267;47.838;12.128;2023-04-25T12:17:20;1.73;;;1.60;;
27925;SDS011;15267;47.838;12.128;2023-04-25T12:19:46;3.72;;;1.70;;
27925;SDS011;15267;47.838;12.128;2023-04-25T12:22:22;2.83;;;1.45;;
27925;SDS011;15267;47.838;12.128;2023-04-25T12:24:48;1.95;;;1.23;;
27925;SDS011;15267;47.838;12.128;2023-04-25T12:27:15;4.35;;;1.50;;
27925;SDS011;15267;47.838;12.128;2023-04-25T12:29:50;4.30;;;1.75;;
27925;SDS011;15267;47.838;12.128;2023-04-25T12:32:16;2.35;;;1.20;;
27925;SDS011;15267;47.838;12.128;2023-04-25T12:34:43;2.40;;;1.75;;
27925;SDS011;15267;47.838;12.128;2023-04-25T12:37:09;4.22;;;1.52;;
27925;SDS011;15267;47.838;12.128;2023-04-25T12:39:36;1.95;;;1.55;;
27925;SDS011;15267;47.838;12.128;2023-04-25T12:42:02;1.65;;;1.40;;
27925;SDS011;15267;47.838;12.128;2023-04-25T12:44:28;2.63;;;1.40;;
27925;SDS011;15267;47.838;12.128;2023-04-25T12:46:54;2.97;;;2.17;;
27925;SDS011;15267;47.838;12.128;2023-04-25T12:49:20;2.50;;;1.40;;
27925;SDS011;15267;47.838;12.128;2023-04-25T12:51:47;2.95;;;1.88;;
27925;SDS011;15267;47.838;12.128;2023-04-25T12:54:13;2.15;;;0.90;;
27925;SDS011;15267;47.838;12.128;2023-04-25T12:56:39;1.00;;;1.00;;
27925;SDS011;15267;47.838;12.128;2023-04-25T12:59:06;1.13;;;0.93;;
27925;SDS011;15267;47.838;12.128;2023-04-25T13:01:32;1.65;;;1.13;;
27925;SDS011;15267;47.838;12.128;2023-04-25T13:03:58;1.27;;;1.10;;
27925;SDS011;15267;47.838;12.128;2023-04-25T13:06:24;2.50;;;1.20;;
27925;SDS011;15267;47.838;12.128;2023-04-25T13:08:51;1.85;;;1.20;;
27925;SDS011;15267;47.838;12.128;2023-04-25T13:11:17;1.90;;;1.35;;
27925;SDS011;15267;47.838;12.128;2023-04-25T13:13:43;2.55;;;1.60;;
27925;SDS011;15267;47.838;12.128;2023-04-25T13:16:09;2.55;;;1.25;;
27925;SDS011;15267;47.838;12.128;2023-04-25T13:18:36;1.67;;;1.38;;
27925;SDS011;15267;47.838;12.128;2023-04-25T13:21:02;1.33;;;1.10;;
27925;SDS011;15267;47.838;12.128;2023-04-25T13:23:28;2.10;;;1.10;;
27925;SDS011;15267;47.838;12.128;2023-04-25T13:25:55;1.52;;;1.13;;
27925;SDS011;15267;47.838;12.128;2023-04-25T13:28:25;3.33;;;1.85;;
27925;SDS011;15267;47.838;12.128;2023-04-25T13:30:51;3.05;;;2.00;;
27925;SDS011;15267;47.838;12.128;2023-04-25T13:33:18;2.80;;;2.60;;
27925;SDS011;15267;47.838;12.128;2023-04-25T13:35:45;2.03;;;1.30;;
27925;SDS011;15267;47.838;12.128;2023-04-25T13:38:22;2.25;;;1.10;;
27925;SDS011;15267;47.838;12.128;2023-04-25T13:40:49;2.88;;;1.08;;
27925;SDS011;15267;47.838;12.128;2023-04-25T13:43:17;1.17;;;0.90;;
27925;SDS011;15267;47.838;12.128;2023-04-25T13:45:43;1.38;;;1.00;;
27925;SDS011;15267;47.838;12.128;2023-04-25T13:48:09;0.68;;;0.68;;
27925;SDS011;15267;47.838;12.128;2023-04-25T13:50:35;2.03;;;0.88;;
27925;SDS011;15267;47.838;12.128;2023-04-25T13:53:01;2.60;;;0.90;;
27925;SDS011;15267;47.838;12.128;2023-04-25T13:55:27;0.70;;;0.70;;
27925;SDS011;15267;47.838;12.128;2023-04-25T13:57:53;1.23;;;0.80;;
27925;SDS011;15267;47.838;12.128;2023-04-25T14:00:19;1.90;;;0.70;;
27925;SDS011;15267;47.838;12.128;2023-04-25T14:02:46;0.80;;;0.70;;
27925;SDS011;15267;47.838;12.128;2023-04-25T14:05:12;0.80;;;0.70;;
27925;SDS011;15267;47.838;12.128;2023-04-25T14:07:38;1.00;;;0.60;;
27925;SDS011;15267;47.838;12.128;2023-04-25T14:10:04;1.58;;;1.00;;
27925;SDS011;15267;47.838;12.128;2023-04-25T14:12:31;6.45;;;5.75;;
27925;SDS011;15267;47.838;12.128;2023-04-25T14:14:57;2.00;;;1.80;;
27925;SDS011;15267;47.838;12.128;2023-04-25T14:17:23;2.08;;;1.00;;
27925;SDS011;15267;47.838;12.128;2023-04-25T14:19:49;1.90;;;1.20;;
27925;SDS011;15267;47.838;12.128;2023-04-25T14:22:15;1.05;;;0.70;;
27925;SDS011;15267;47.838;12.128;2023-04-25T14:24:41;2.65;;;0.80;;
27925;SDS011;15267;47.838;12.128;2023-04-25T14:27:07;1.63;;;0.88;;
27925;SDS011;15267;47.838;12.128;2023-04-25T14:29:33;3.90;;;0.70;;
27925;SDS011;15267;47.838;12.128;2023-04-25T14:31:59;1.25;;;0.60;;